createdAt,value
2023-01-07T00:00:27.954Z,9.57
2023-01-07T00:05:30.018Z,9.38
2023-01-07T00:10:32.454Z,9.40
2023-01-07T00:15:34.710Z,8.13
2023-01-07T00:20:36.921Z,7.90
2023-01-07T00:25:39.152Z,8.38
2023-01-07T00:30:45.331Z,8.27
2023-01-07T00:35:49.845Z,11.93
2023-01-07T00:40:52.064Z,12.20
2023-01-07T00:45:54.381Z,11.52
2023-01-07T00:50:56.826Z,10.63
2023-01-07T00:55:58.990Z,7.18
2023-01-07T01:01:02.258Z,7.32
2023-01-07T01:06:13.356Z,6.30
2023-01-07T01:11:16.741Z,6.90
2023-01-07T01:16:19.076Z,8.23
2023-01-07T01:21:21.166Z,6.80
2023-01-07T01:26:23.399Z,6.63
2023-01-07T01:31:25.979Z,5.43
2023-01-07T01:36:29.006Z,6.38
2023-01-07T01:41:34.511Z,5.43
2023-01-07T01:46:41.677Z,5.63
2023-01-07T01:51:56.160Z,4.70
2023-01-07T01:57:03.097Z,5.13
2023-01-07T02:02:07.200Z,3.88
2023-01-07T02:07:15.135Z,5.35
2023-01-07T02:12:36.779Z,4.18
2023-01-07T02:17:45.339Z,4.65
2023-01-07T02:23:06.980Z,4.97
2023-01-07T02:28:27.692Z,4.03
2023-01-07T02:33:38.962Z,4.05
2023-01-07T02:39:04.883Z,3.17
2023-01-07T02:44:21.247Z,3.25
2023-01-07T02:49:23.980Z,3.33
2023-01-07T02:54:29.658Z,4.60
2023-01-07T02:59:51.733Z,4.25
2023-01-07T03:05:17.993Z,3.92
2023-01-07T03:10:30.983Z,4.55
2023-01-07T03:15:49.250Z,4.68
2023-01-07T03:20:57.075Z,3.92
2023-01-07T03:26:05.433Z,3.63
2023-01-07T03:31:12.464Z,4.60
2023-01-07T03:36:18.567Z,4.43
2023-01-07T03:41:40.066Z,4.85
2023-01-07T03:46:43.504Z,3.95
2023-01-07T03:51:46.885Z,4.55
2023-01-07T03:56:49.626Z,5.65
2023-01-07T04:01:52.009Z,7.05
2023-01-07T04:06:54.841Z,4.65
2023-01-07T04:11:57.588Z,4.93
2023-01-07T04:17:00.662Z,4.40
2023-01-07T04:22:03.084Z,5.10
2023-01-07T04:27:07.277Z,6.10
2023-01-07T04:32:09.465Z,6.18
2023-01-07T04:37:11.766Z,5.90
2023-01-07T04:42:14.103Z,6.72
2023-01-07T04:47:16.911Z,6.30
2023-01-07T04:52:19.993Z,5.97
2023-01-07T04:57:22.302Z,7.00
2023-01-07T05:02:25.385Z,8.27
2023-01-07T05:07:28.802Z,7.07
2023-01-07T05:12:36.441Z,9.23
2023-01-07T05:17:41.039Z,7.95
2023-01-07T05:22:43.696Z,7.15
2023-01-07T05:27:46.074Z,6.90
2023-01-07T05:32:48.714Z,8.32
2023-01-07T05:37:51.810Z,8.20
2023-01-07T05:42:55.142Z,6.75
2023-01-07T05:47:57.383Z,6.78
2023-01-07T05:52:59.514Z,6.63
2023-01-07T05:58:01.773Z,7.18
2023-01-07T06:03:05.284Z,7.03
2023-01-07T06:08:10.311Z,6.72
2023-01-07T06:13:12.357Z,12.68
2023-01-07T06:18:14.501Z,9.40
2023-01-07T06:23:16.841Z,10.20
2023-01-07T06:28:19.326Z,12.00
2023-01-07T06:33:21.647Z,14.27
2023-01-07T06:38:23.746Z,11.23
2023-01-07T06:43:26.405Z,11.23
2023-01-07T06:48:28.732Z,24.10
2023-01-07T06:53:31.146Z,10.65
2023-01-07T06:58:33.237Z,10.00
2023-01-07T07:03:35.554Z,12.30
2023-01-07T07:08:37.799Z,12.88
2023-01-07T07:13:40.016Z,12.93
2023-01-07T07:18:42.200Z,16.58
2023-01-07T07:23:49.249Z,13.43
2023-01-07T07:28:51.401Z,17.17
2023-01-07T07:33:53.598Z,10.43
2023-01-07T07:38:56.029Z,27.80
2023-01-07T07:43:58.703Z,10.07
2023-01-07T07:49:01.880Z,14.65
2023-01-07T07:59:25.996Z,9.93
2023-01-07T08:04:34.324Z,10.18
2023-01-07T08:09:36.630Z,13.93
2023-01-07T08:14:38.994Z,7.82
2023-01-07T08:19:41.056Z,12.88
2023-01-07T08:24:43.129Z,17.50
2023-01-07T08:29:45.337Z,8.52
2023-01-07T08:34:47.782Z,8.02
2023-01-07T08:39:50.285Z,6.82
2023-01-07T08:44:52.513Z,3.13
2023-01-07T08:49:55.289Z,4.45
2023-01-07T08:54:57.805Z,3.03
2023-01-07T09:00:00.149Z,1.52
2023-01-07T09:05:02.292Z,1.80
2023-01-07T09:10:05.268Z,10.23
2023-01-07T09:15:08.158Z,8.10
2023-01-07T09:20:13.630Z,2.00
2023-01-07T09:25:16.232Z,1.35
2023-01-07T09:30:23.517Z,1.75
2023-01-07T09:35:25.789Z,1.90
2023-01-07T09:40:30.983Z,1.23
2023-01-07T09:45:57.459Z,1.10
2023-01-07T09:51:19.436Z,1.50
2023-01-07T09:56:36.654Z,2.05
2023-01-07T10:02:03.771Z,1.40
2023-01-07T10:07:09.213Z,1.98
2023-01-07T10:12:14.906Z,2.38
2023-01-07T10:17:37.304Z,1.10
2023-01-07T10:22:54.113Z,1.60
2023-01-07T10:28:03.431Z,1.52
2023-01-07T10:33:19.769Z,1.70
2023-01-07T10:38:22.113Z,2.60
2023-01-07T10:43:29.940Z,1.40
2023-01-07T10:48:35.067Z,2.40
2023-01-07T10:53:53.355Z,2.38
2023-01-07T10:58:55.823Z,1.95
2023-01-07T11:04:00.110Z,2.20
2023-01-07T11:09:07.443Z,1.60
2023-01-07T11:14:39.751Z,1.50
2023-01-07T11:19:49.356Z,1.90
2023-01-07T11:24:51.729Z,0.88
2023-01-07T11:30:41.593Z,1.48
2023-01-07T11:42:38.596Z,1.15
2023-01-07T11:47:48.807Z,0.80
2023-01-07T11:53:02.483Z,1.35
2023-01-07T11:58:29.415Z,1.40
2023-01-07T12:03:29.463Z,1.38
2023-01-07T12:08:32.121Z,1.60
2023-01-07T12:13:34.658Z,1.60
2023-01-07T12:18:55.846Z,1.45
2023-01-07T12:29:16.538Z,17.98
2023-01-07T12:34:32.538Z,6.70
2023-01-07T12:39:42.841Z,3.45
2023-01-07T12:44:55.068Z,1.70
2023-01-07T12:50:09.863Z,2.20
2023-01-07T12:55:25.871Z,1.60
2023-01-07T13:00:52.962Z,3.30
2023-01-07T13:06:11.441Z,1.77
2023-01-07T13:11:43.828Z,2.10
2023-01-07T13:16:46.250Z,2.47
2023-01-07T13:21:50.167Z,5.05
2023-01-07T13:27:09.764Z,11.63
2023-01-07T13:32:30.398Z,26.50
2023-01-07T13:37:44.837Z,7.32
2023-01-07T13:42:59.789Z,6.68
2023-01-07T13:48:07.336Z,3.75
2023-01-07T13:53:15.695Z,8.68
2023-01-07T13:58:56.077Z,4.22
2023-01-07T14:04:03.566Z,7.15
2023-01-07T14:09:08.552Z,8.68
2023-01-07T14:14:47.933Z,8.90
2023-01-07T14:20:02.328Z,10.38
2023-01-07T14:25:42.827Z,10.55
2023-01-07T14:30:53.556Z,9.93
2023-01-07T14:36:00.240Z,12.52
2023-01-07T14:41:13.512Z,11.15
2023-01-07T14:46:25.076Z,13.25
2023-01-07T14:52:00.508Z,11.38
2023-01-07T14:57:23.903Z,6.97
2023-01-07T15:03:03.999Z,18.35
2023-01-07T15:08:29.334Z,6.67
2023-01-07T15:13:55.403Z,5.30
2023-01-07T15:18:57.718Z,9.23
2023-01-07T15:24:33.467Z,33.33
2023-01-07T15:29:56.835Z,38.33
2023-01-07T15:34:59.212Z,29.02
2023-01-07T15:40:01.841Z,20.52
2023-01-07T15:45:04.963Z,16.35
2023-01-07T15:50:23.831Z,15.30
2023-01-07T15:55:33.121Z,21.77
2023-01-07T16:00:36.016Z,26.85
2023-01-07T16:05:38.685Z,28.65
2023-01-07T16:10:40.878Z,20.67
2023-01-07T16:15:43.012Z,27.17
2023-01-07T16:21:01.360Z,21.50
2023-01-07T16:26:25.199Z,16.50
2023-01-07T16:31:29.983Z,15.40
2023-01-07T16:36:38.474Z,17.35
2023-01-07T16:41:42.981Z,19.88
2023-01-07T16:47:06.697Z,18.77
2023-01-07T16:52:17.061Z,16.58
2023-01-07T16:57:48.909Z,21.63
2023-01-07T17:02:59.870Z,16.42
2023-01-07T17:08:08.510Z,23.05
2023-01-07T17:13:14.989Z,16.20
2023-01-07T17:18:17.630Z,13.40
2023-01-07T17:23:25.629Z,12.32
2023-01-07T17:28:30.668Z,15.23
2023-01-07T17:33:33.035Z,15.85
2023-01-07T17:38:35.274Z,14.20
2023-01-07T17:43:38.026Z,13.38
2023-01-07T17:48:40.139Z,15.98
2023-01-07T17:53:50.546Z,28.98
2023-01-07T17:58:55.747Z,33.27
2023-01-07T18:04:01.484Z,34.97
2023-01-07T18:09:05.159Z,30.38
2023-01-07T18:14:08.076Z,27.15
2023-01-07T18:19:14.793Z,13.68
2023-01-07T18:24:20.281Z,22.92
2023-01-07T18:29:22.526Z,28.58
2023-01-07T18:34:24.993Z,23.35
2023-01-07T18:39:27.207Z,19.67
2023-01-07T18:44:29.475Z,19.58
2023-01-07T18:49:31.717Z,28.50
2023-01-07T18:54:33.985Z,16.88
2023-01-07T18:59:36.503Z,16.83
2023-01-07T19:04:41.793Z,12.68
2023-01-07T19:09:44.832Z,12.13
2023-01-07T19:14:46.921Z,15.52
2023-01-07T19:19:49.244Z,17.85
2023-01-07T19:24:51.839Z,17.67
2023-01-07T19:29:54.137Z,18.42
2023-01-07T19:34:56.379Z,34.75
2023-01-07T19:39:58.453Z,13.15
2023-01-07T19:45:00.690Z,11.20
2023-01-07T19:50:23.220Z,14.60
2023-01-07T19:55:27.417Z,16.38
2023-01-07T20:00:29.515Z,15.90
2023-01-07T20:05:31.594Z,16.75
2023-01-07T20:10:34.099Z,20.65
2023-01-07T20:15:36.460Z,17.38
2023-01-07T20:20:38.603Z,16.52
2023-01-07T20:25:48.120Z,17.92
2023-01-07T20:30:50.378Z,19.92
2023-01-07T20:36:03.494Z,15.82
2023-01-07T20:41:14.357Z,15.65
2023-01-07T20:46:17.886Z,10.95
2023-01-07T20:51:20.724Z,10.60
2023-01-07T20:56:36.597Z,11.60
2023-01-07T21:01:39.260Z,10.23
2023-01-07T21:06:45.038Z,12.73
2023-01-07T21:11:50.106Z,10.85
2023-01-07T21:16:52.519Z,10.90
2023-01-07T21:21:54.973Z,21.85
2023-01-07T21:26:57.222Z,12.43
2023-01-07T21:32:01.115Z,9.95
2023-01-07T21:37:03.718Z,8.98
2023-01-07T21:42:06.650Z,10.13
2023-01-07T21:47:08.863Z,11.15
2023-01-07T21:52:11.123Z,12.48
2023-01-07T21:57:13.421Z,9.95
2023-01-07T22:02:17.995Z,10.38
2023-01-07T22:07:20.331Z,7.65
2023-01-07T22:12:23.682Z,9.23
2023-01-07T22:17:26.904Z,9.13
2023-01-07T22:22:36.633Z,9.73
2023-01-07T22:27:38.848Z,8.57
2023-01-07T22:32:41.151Z,13.93
2023-01-07T22:37:43.302Z,12.10
2023-01-07T22:42:55.839Z,9.13
2023-01-07T22:47:58.393Z,8.45
2023-01-07T22:53:00.543Z,8.38
2023-01-07T22:58:03.569Z,7.93
2023-01-07T23:03:06.001Z,9.05
2023-01-07T23:08:08.684Z,8.20
2023-01-07T23:13:11.190Z,8.50
2023-01-07T23:18:14.005Z,8.18
2023-01-07T23:23:16.362Z,7.38
2023-01-07T23:28:19.789Z,8.13
2023-01-07T23:33:22.045Z,8.90
2023-01-07T23:38:24.202Z,8.35
2023-01-07T23:43:27.411Z,6.95
2023-01-07T23:48:31.710Z,8.57
2023-01-07T23:53:34.426Z,8.55
2023-01-07T23:58:38.079Z,7.60
